createdAt,value
2023-03-27T00:02:12.042Z,59.10
2023-03-27T00:07:17.443Z,59.10
2023-03-27T00:12:21.364Z,58.80
2023-03-27T00:17:25.395Z,58.80
2023-03-27T00:22:30.438Z,59.00
2023-03-27T00:27:34.483Z,59.20
2023-03-27T00:32:38.677Z,59.30
2023-03-27T00:37:42.653Z,59.00
2023-03-27T00:42:49.244Z,58.90
2023-03-27T00:48:04.575Z,58.60
2023-03-27T00:53:14.226Z,58.50
2023-03-27T00:58:23.135Z,58.40
2023-03-27T01:03:31.793Z,59.00
2023-03-27T01:08:40.111Z,59.40
2023-03-27T01:14:02.962Z,59.80
2023-03-27T01:19:44.967Z,59.90
2023-03-27T01:24:58.409Z,60.50
2023-03-27T01:30:06.328Z,60.60
2023-03-27T01:35:24.152Z,60.80
2023-03-27T01:40:51.329Z,60.50
2023-03-27T01:46:09.207Z,60.60
2023-03-27T01:51:32.975Z,60.50
2023-03-27T01:56:51.995Z,60.60
2023-03-27T02:02:01.981Z,61.00
2023-03-27T02:07:12.631Z,60.80
2023-03-27T02:12:23.901Z,60.30
2023-03-27T02:17:28.893Z,61.10
2023-03-27T02:22:37.719Z,60.40
2023-03-27T02:27:47.996Z,60.80
2023-03-27T02:33:15.186Z,61.10
2023-03-27T02:38:38.203Z,61.50
2023-03-27T02:44:01.464Z,61.10
2023-03-27T02:49:47.145Z,61.10
2023-03-27T02:54:58.230Z,61.00
2023-03-27T03:00:05.229Z,60.90
2023-03-27T03:05:21.046Z,60.80
2023-03-27T03:10:27.209Z,60.90
2023-03-27T03:15:32.389Z,61.20
2023-03-27T03:20:36.424Z,61.00
2023-03-27T03:25:42.480Z,61.00
2023-03-27T03:30:50.608Z,61.40
2023-03-27T03:35:55.129Z,60.40
2023-03-27T03:41:06.167Z,59.90
2023-03-27T03:46:11.074Z,58.90
2023-03-27T03:51:15.037Z,58.00
2023-03-27T03:56:19.001Z,57.90
2023-03-27T04:01:26.700Z,57.60
2023-03-27T04:06:38.183Z,57.40
2023-03-27T04:11:42.629Z,57.10
2023-03-27T04:16:52.997Z,57.30
2023-03-27T04:22:04.716Z,57.20
2023-03-27T04:27:12.948Z,56.90
2023-03-27T04:32:27.545Z,56.90
2023-03-27T04:38:06.653Z,56.50
2023-03-27T04:43:26.552Z,56.40
2023-03-27T04:48:31.299Z,56.60
2023-03-27T04:53:38.179Z,56.60
2023-03-27T04:58:47.045Z,56.80
2023-03-27T05:03:54.000Z,57.20
2023-03-27T05:09:13.523Z,57.20
2023-03-27T05:14:19.051Z,57.10
2023-03-27T05:19:26.222Z,57.10
2023-03-27T05:24:35.238Z,56.70
2023-03-27T05:29:47.391Z,56.40
2023-03-27T05:34:54.980Z,56.80
2023-03-27T05:40:00.751Z,56.80
2023-03-27T05:45:05.495Z,57.50
2023-03-27T05:50:10.650Z,57.10
2023-03-27T05:55:17.455Z,58.00
2023-03-27T06:00:27.578Z,58.20
2023-03-27T06:05:33.091Z,58.30
2023-03-27T06:10:41.835Z,58.30
2023-03-27T06:15:58.376Z,58.20
2023-03-27T06:21:28.608Z,57.80
2023-03-27T06:26:36.899Z,57.90
2023-03-27T06:31:41.294Z,57.60
2023-03-27T06:36:50.367Z,58.90
2023-03-27T06:41:54.539Z,59.20
2023-03-27T06:47:07.850Z,58.90
2023-03-27T06:52:26.021Z,58.80
2023-03-27T06:57:33.543Z,58.90
2023-03-27T07:02:40.187Z,59.10
2023-03-27T07:08:21.156Z,59.20
2023-03-27T07:13:28.100Z,59.30
2023-03-27T07:18:35.013Z,59.20
2023-03-27T07:23:39.232Z,59.20
2023-03-27T07:28:46.437Z,59.00
2023-03-27T07:33:51.815Z,58.70
2023-03-27T07:39:04.239Z,58.70
2023-03-27T07:44:08.572Z,58.30
2023-03-27T07:49:30.016Z,57.20
2023-03-27T07:54:48.672Z,56.10
2023-03-27T07:59:54.852Z,55.60
2023-03-27T08:05:09.733Z,55.30
2023-03-27T08:10:14.873Z,55.00
2023-03-27T08:15:30.192Z,54.70
2023-03-27T08:20:36.149Z,54.50
2023-03-27T08:25:40.393Z,54.40
2023-03-27T08:30:45.058Z,54.30
2023-03-27T08:35:51.602Z,54.30
2023-03-27T08:41:00.813Z,54.10
2023-03-27T08:46:40.953Z,53.80
2023-03-27T08:51:53.560Z,53.70
2023-03-27T08:56:58.716Z,53.90
2023-03-27T09:02:30.148Z,53.60
2023-03-27T09:07:42.105Z,53.30
2023-03-27T09:13:15.538Z,53.30
2023-03-27T09:18:31.600Z,53.30
2023-03-27T09:23:46.619Z,53.20
2023-03-27T09:29:26.217Z,53.30
2023-03-27T09:34:37.104Z,53.50
2023-03-27T09:39:44.748Z,53.70
2023-03-27T09:45:10.582Z,53.90
2023-03-27T09:50:35.169Z,53.70
2023-03-27T09:55:59.610Z,54.00
2023-03-27T10:01:16.459Z,54.30
2023-03-27T10:06:28.150Z,54.50
2023-03-27T10:11:40.620Z,54.90
2023-03-27T10:16:49.922Z,55.00
2023-03-27T10:21:56.853Z,55.20
2023-03-27T10:27:07.304Z,55.30
2023-03-27T10:32:11.858Z,55.40
2023-03-27T10:37:41.750Z,55.30
2023-03-27T10:43:18.276Z,55.30
2023-03-27T10:48:31.482Z,55.10
2023-03-27T10:53:49.685Z,55.20
2023-03-27T10:59:14.678Z,55.30
2023-03-27T11:04:40.015Z,55.30
2023-03-27T11:10:02.762Z,55.20
2023-03-27T11:15:18.562Z,55.10
2023-03-27T11:20:33.886Z,55.20
2023-03-27T11:25:49.602Z,55.10
2023-03-27T11:31:24.212Z,55.00
2023-03-27T11:36:41.338Z,54.90
2023-03-27T11:41:57.548Z,55.00
2023-03-27T11:47:21.209Z,55.00
2023-03-27T11:53:01.868Z,54.90
2023-03-27T11:59:06.284Z,55.10
2023-03-27T12:04:45.116Z,54.90
2023-03-27T12:10:29.136Z,55.20
2023-03-27T12:15:57.528Z,54.00
2023-03-27T12:21:34.425Z,53.00
2023-03-27T12:27:23.699Z,52.10
2023-03-27T12:32:41.076Z,51.80
2023-03-27T12:38:00.095Z,51.50
2023-03-27T12:43:20.599Z,51.40
2023-03-27T12:48:27.713Z,50.70
2023-03-27T12:53:35.215Z,51.00
2023-03-27T12:58:49.900Z,51.20
2023-03-27T13:04:05.707Z,50.90
2023-03-27T13:09:53.526Z,50.60
2023-03-27T13:15:21.616Z,51.10
2023-03-27T13:20:52.674Z,51.30
2023-03-27T13:26:49.297Z,51.00
2023-03-27T13:31:58.035Z,50.40
2023-03-27T13:37:11.620Z,50.70
2023-03-27T13:42:43.652Z,50.90
2023-03-27T13:48:10.690Z,51.30
2023-03-27T13:53:39.211Z,52.80
2023-03-27T13:59:17.099Z,54.60
2023-03-27T14:04:38.820Z,54.20
2023-03-27T14:10:11.542Z,54.50
2023-03-27T14:15:48.416Z,54.60
2023-03-27T14:21:10.384Z,55.80
2023-03-27T14:26:23.084Z,56.40
2023-03-27T14:31:35.694Z,57.40
2023-03-27T14:36:49.057Z,58.20
2023-03-27T14:42:17.488Z,59.20
2023-03-27T14:47:24.764Z,58.80
2023-03-27T14:52:35.555Z,58.50
2023-03-27T14:58:11.189Z,58.10
2023-03-27T15:03:20.241Z,58.20
2023-03-27T15:08:26.658Z,57.80
2023-03-27T15:14:03.104Z,58.00
2023-03-27T15:19:20.052Z,57.20
2023-03-27T15:24:27.575Z,56.90
2023-03-27T15:30:08.486Z,56.70
2023-03-27T15:35:25.972Z,56.40
2023-03-27T15:40:44.726Z,56.10
2023-03-27T15:46:14.012Z,55.90
2023-03-27T15:51:22.175Z,56.00
2023-03-27T15:56:42.850Z,55.60
2023-03-27T16:01:54.025Z,55.40
2023-03-27T16:07:09.946Z,55.60
2023-03-27T16:12:17.464Z,55.50
2023-03-27T16:17:29.001Z,54.90
2023-03-27T16:22:39.571Z,54.90
2023-03-27T16:27:55.779Z,54.90
2023-03-27T16:33:01.216Z,54.80
2023-03-27T16:38:06.378Z,55.00
2023-03-27T16:43:10.811Z,54.90
2023-03-27T16:48:17.194Z,54.70
2023-03-27T16:53:21.481Z,55.00
2023-03-27T16:58:26.308Z,54.60
2023-03-27T17:03:31.667Z,54.20
2023-03-27T17:08:37.762Z,54.00
2023-03-27T17:13:43.632Z,53.80
2023-03-27T17:18:49.715Z,54.20
2023-03-27T17:23:55.369Z,53.70
2023-03-27T17:29:01.509Z,54.50
2023-03-27T17:34:08.446Z,54.20
2023-03-27T17:39:13.618Z,53.70
2023-03-27T17:44:20.226Z,53.80
2023-03-27T17:49:26.518Z,53.00
2023-03-27T17:54:33.029Z,52.60
2023-03-27T17:59:39.198Z,51.90
2023-03-27T18:04:45.190Z,51.10
2023-03-27T18:09:51.269Z,50.80
2023-03-27T18:14:57.308Z,50.60
2023-03-27T18:20:03.257Z,50.40
2023-03-27T18:25:10.776Z,50.40
2023-03-27T18:30:25.548Z,50.40
2023-03-27T18:35:32.981Z,50.50
2023-03-27T18:40:40.495Z,50.60
2023-03-27T18:45:48.355Z,51.30
2023-03-27T18:50:59.261Z,51.30
2023-03-27T18:56:06.744Z,50.50
2023-03-27T19:01:13.437Z,50.80
2023-03-27T19:06:20.075Z,50.60
2023-03-27T19:11:35.679Z,51.10
2023-03-27T19:17:15.765Z,51.50
2023-03-27T19:22:41.836Z,51.30
2023-03-27T19:28:07.293Z,51.60
2023-03-27T19:33:14.517Z,52.10
2023-03-27T19:38:21.968Z,51.50
2023-03-27T19:43:31.443Z,52.00
2023-03-27T19:48:38.057Z,51.60
2023-03-27T19:53:50.067Z,51.90
2023-03-27T19:59:01.373Z,52.00
2023-03-27T20:04:07.933Z,52.50
2023-03-27T20:09:15.393Z,53.60
2023-03-27T20:14:23.889Z,55.50
2023-03-27T20:19:31.764Z,55.80
2023-03-27T20:24:41.383Z,55.70
2023-03-27T20:29:48.353Z,56.20
2023-03-27T20:34:54.113Z,55.80
2023-03-27T20:40:02.318Z,55.60
2023-03-27T20:45:07.863Z,55.70
2023-03-27T20:50:16.084Z,55.60
2023-03-27T20:55:26.783Z,55.60
2023-03-27T21:00:39.093Z,55.60
2023-03-27T21:05:42.919Z,55.70
2023-03-27T21:10:54.260Z,57.20
2023-03-27T21:15:58.714Z,58.90
2023-03-27T21:21:03.312Z,58.10
2023-03-27T21:26:07.840Z,57.30
2023-03-27T21:31:12.679Z,56.50
2023-03-27T21:36:16.852Z,55.90
2023-03-27T21:41:21.379Z,55.40
2023-03-27T21:46:25.425Z,54.80
2023-03-27T21:51:29.741Z,54.70
2023-03-27T21:56:33.784Z,54.30
2023-03-27T22:01:39.296Z,54.40
2023-03-27T22:06:44.813Z,54.30
2023-03-27T22:11:48.960Z,54.20
2023-03-27T22:16:52.886Z,54.50
2023-03-27T22:21:57.224Z,54.90
2023-03-27T22:27:01.365Z,55.00
2023-03-27T22:32:06.028Z,54.80
2023-03-27T22:37:10.039Z,55.00
2023-03-27T22:42:14.268Z,55.10
2023-03-27T22:47:18.201Z,55.30
2023-03-27T22:52:22.128Z,55.70
2023-03-27T22:57:26.476Z,55.90
2023-03-27T23:02:30.498Z,55.80
2023-03-27T23:07:34.745Z,55.80
2023-03-27T23:12:38.669Z,55.90
2023-03-27T23:17:42.533Z,55.80
2023-03-27T23:22:46.740Z,55.90
2023-03-27T23:27:50.574Z,55.80
2023-03-27T23:32:54.399Z,55.90
2023-03-27T23:37:58.568Z,55.90
2023-03-27T23:43:02.560Z,56.10
2023-03-27T23:48:06.525Z,56.50
2023-03-27T23:53:11.747Z,56.20
2023-03-27T23:58:15.679Z,56.80
